createdAt,value
2023-04-13T00:00:30.728Z,59.00
2023-04-13T00:03:00.547Z,60.00
2023-04-13T00:05:29.435Z,60.00
2023-04-13T00:08:02.779Z,62.00
2023-04-13T00:10:31.631Z,63.60
2023-04-13T00:13:01.577Z,63.90
2023-04-13T00:15:29.768Z,64.00
2023-04-13T00:17:59.762Z,62.10
2023-04-13T00:20:27.960Z,63.10
2023-04-13T00:22:56.304Z,65.90
2023-04-13T00:25:24.488Z,64.00
2023-04-13T00:27:53.986Z,62.20
2023-04-13T00:30:22.578Z,60.70
2023-04-13T00:32:51.093Z,61.30
2023-04-13T00:35:25.033Z,62.70
2023-04-13T00:37:53.446Z,64.20
2023-04-13T00:40:21.703Z,61.50
2023-04-13T00:42:51.710Z,61.60
2023-04-13T00:45:21.564Z,65.20
2023-04-13T00:47:51.885Z,63.70
2023-04-13T00:50:22.080Z,64.20
2023-04-13T00:52:50.724Z,65.30
2023-04-13T00:55:22.146Z,65.50
2023-04-13T00:57:52.453Z,65.70
2023-04-13T01:00:21.807Z,64.00
2023-04-13T01:02:50.669Z,62.00
2023-04-13T01:05:19.371Z,62.50
2023-04-13T01:08:09.189Z,62.20
2023-04-13T01:10:44.293Z,62.00
2023-04-13T01:13:20.567Z,62.10
2023-04-13T01:15:56.418Z,60.60
2023-04-13T01:18:27.630Z,61.40
2023-04-13T01:20:56.234Z,61.20
2023-04-13T01:23:32.236Z,60.00
2023-04-13T01:26:04.229Z,59.20
2023-04-13T01:28:34.653Z,59.40
2023-04-13T01:31:05.913Z,58.40
2023-04-13T01:33:34.518Z,59.00
2023-04-13T01:36:03.235Z,59.30
2023-04-13T01:38:31.351Z,56.90
2023-04-13T01:40:59.466Z,58.80
2023-04-13T01:43:28.778Z,61.30
2023-04-13T01:46:04.233Z,61.10
2023-04-13T01:48:37.266Z,59.80
2023-04-13T01:51:09.611Z,61.80
2023-04-13T01:53:41.229Z,62.30
2023-04-13T01:56:12.963Z,60.00
2023-04-13T01:58:41.895Z,58.60
2023-04-13T02:01:12.794Z,60.80
2023-04-13T02:03:43.451Z,61.90
2023-04-13T02:06:12.164Z,61.70
2023-04-13T02:08:40.454Z,62.20
2023-04-13T02:11:09.081Z,63.00
2023-04-13T02:13:37.725Z,62.00
2023-04-13T02:16:07.629Z,62.90
2023-04-13T02:18:37.060Z,62.80
2023-04-13T02:21:09.419Z,62.30
2023-04-13T02:23:38.210Z,62.40
2023-04-13T02:26:08.988Z,62.40
2023-04-13T02:28:37.141Z,62.80
2023-04-13T02:31:05.917Z,64.10
2023-04-13T02:33:34.204Z,65.00
2023-04-13T02:36:05.006Z,65.80
2023-04-13T02:38:34.126Z,66.40
2023-04-13T02:41:03.056Z,67.60
2023-04-13T02:43:31.134Z,67.40
2023-04-13T02:45:59.599Z,67.50
2023-04-13T02:48:28.338Z,67.50
2023-04-13T02:50:56.405Z,67.90
2023-04-13T02:53:26.034Z,68.40
2023-04-13T02:55:55.402Z,69.20
2023-04-13T02:58:23.930Z,70.00
2023-04-13T03:00:52.339Z,70.20
2023-04-13T03:03:20.643Z,69.60
2023-04-13T03:05:50.339Z,67.50
2023-04-13T03:08:18.795Z,64.10
2023-04-13T03:10:48.282Z,62.30
2023-04-13T03:13:16.337Z,64.30
2023-04-13T03:15:44.381Z,65.70
2023-04-13T03:18:13.227Z,61.60
2023-04-13T03:20:41.838Z,61.80
2023-04-13T03:23:09.935Z,61.80
2023-04-13T03:25:38.315Z,60.10
2023-04-13T03:28:07.826Z,55.80
2023-04-13T03:30:36.069Z,56.40
2023-04-13T03:33:04.252Z,55.00
2023-04-13T03:35:32.359Z,56.40
2023-04-13T03:38:00.413Z,56.20
2023-04-13T03:40:28.473Z,53.70
2023-04-13T03:42:56.524Z,51.40
2023-04-13T03:45:26.007Z,50.50
2023-04-13T03:47:54.116Z,48.10
2023-04-13T03:50:22.182Z,50.40
2023-04-13T03:52:50.322Z,49.40
2023-04-13T03:55:19.098Z,49.30
2023-04-13T03:57:47.719Z,48.20
2023-04-13T04:00:16.678Z,50.80
2023-04-13T04:02:46.391Z,47.20
2023-04-13T04:05:15.674Z,47.70
2023-04-13T04:07:43.824Z,49.40
2023-04-13T04:10:12.256Z,49.60
2023-04-13T04:12:40.595Z,48.10
2023-04-13T04:15:09.813Z,44.70
2023-04-13T04:17:39.946Z,45.20
2023-04-13T04:20:11.184Z,47.00
2023-04-13T04:22:39.504Z,44.10
2023-04-13T04:25:08.905Z,44.20
2023-04-13T04:27:38.365Z,45.00
2023-04-13T04:30:10.858Z,46.10
2023-04-13T04:32:40.583Z,45.30
2023-04-13T04:35:14.317Z,45.00
2023-04-13T04:37:42.440Z,42.50
2023-04-13T04:40:11.241Z,40.00
2023-04-13T04:42:39.502Z,40.90
2023-04-13T04:45:08.585Z,40.90
2023-04-13T04:47:42.016Z,41.70
2023-04-13T04:50:12.969Z,40.10
2023-04-13T04:52:42.284Z,41.70
2023-04-13T04:55:10.811Z,43.20
2023-04-13T04:57:38.932Z,41.40
2023-04-13T05:00:11.008Z,42.40
2023-04-13T05:02:39.262Z,42.30
2023-04-13T05:05:09.146Z,41.50
2023-04-13T05:07:39.409Z,40.20
2023-04-13T05:10:09.203Z,41.30
2023-04-13T05:12:37.783Z,39.40
2023-04-13T05:15:07.523Z,39.50
2023-04-13T05:17:36.444Z,39.50
2023-04-13T05:20:06.769Z,37.90
2023-04-13T05:22:35.010Z,37.90
2023-04-13T05:25:04.996Z,37.60
2023-04-13T05:27:33.218Z,37.70
2023-04-13T05:30:01.281Z,39.50
2023-04-13T05:32:29.356Z,38.90
2023-04-13T05:34:57.413Z,38.10
2023-04-13T05:37:25.630Z,41.00
2023-04-13T05:39:53.737Z,39.70
2023-04-13T05:42:24.036Z,39.10
2023-04-13T05:44:52.129Z,37.90
2023-04-13T05:47:22.615Z,37.80
2023-04-13T05:49:50.804Z,36.40
2023-04-13T05:52:18.905Z,38.00
2023-04-13T05:54:46.955Z,37.20
2023-04-13T05:57:15.028Z,35.10
2023-04-13T05:59:44.894Z,37.10
2023-04-13T06:02:12.986Z,36.20
2023-04-13T06:04:41.814Z,37.20
2023-04-13T06:07:10.102Z,38.50
2023-04-13T06:09:38.426Z,36.30
2023-04-13T06:12:06.822Z,37.00
2023-04-13T06:14:35.334Z,35.40
2023-04-13T06:17:04.866Z,33.80
2023-04-13T06:19:32.971Z,36.80
2023-04-13T06:22:01.231Z,34.80
2023-04-13T06:24:29.322Z,36.10
2023-04-13T06:26:58.319Z,36.10
2023-04-13T06:29:26.650Z,36.10
2023-04-13T06:31:55.188Z,32.70
2023-04-13T06:34:25.105Z,34.50
2023-04-13T06:36:53.339Z,36.40
2023-04-13T06:39:21.538Z,33.10
2023-04-13T06:41:49.552Z,34.00
2023-04-13T06:44:18.050Z,32.90
2023-04-13T06:46:46.331Z,32.80
2023-04-13T06:49:14.510Z,34.20
2023-04-13T06:51:43.917Z,33.10
2023-04-13T06:54:12.018Z,33.80
2023-04-13T06:56:40.062Z,34.00
2023-04-13T06:59:08.421Z,34.30
2023-04-13T07:01:37.080Z,33.80
2023-04-13T07:04:07.082Z,32.70
2023-04-13T07:06:36.433Z,33.00
2023-04-13T07:09:05.988Z,33.80
2023-04-13T07:11:34.064Z,32.90
2023-04-13T07:14:02.117Z,35.90
2023-04-13T07:16:30.268Z,36.50
2023-04-13T07:19:00.997Z,33.20
2023-04-13T07:21:31.900Z,35.20
2023-04-13T07:24:00.037Z,34.10
2023-04-13T07:26:29.522Z,35.90
2023-04-13T07:28:57.868Z,34.70
2023-04-13T07:31:26.411Z,33.30
2023-04-13T07:33:54.476Z,32.90
2023-04-13T07:36:23.532Z,33.50
2023-04-13T07:38:51.773Z,35.90
2023-04-13T07:41:22.602Z,37.90
2023-04-13T07:43:52.211Z,33.70
2023-04-13T07:46:26.336Z,33.00
2023-04-13T07:48:55.114Z,31.70
2023-04-13T07:51:23.510Z,35.20
2023-04-13T07:53:53.652Z,33.30
2023-04-13T07:56:22.623Z,31.80
2023-04-13T07:58:52.057Z,34.30
2023-04-13T08:01:21.489Z,30.50
2023-04-13T08:03:49.843Z,33.30
2023-04-13T08:06:21.011Z,32.60
2023-04-13T08:08:49.174Z,30.90
2023-04-13T08:11:17.408Z,31.50
2023-04-13T08:13:45.458Z,30.70
2023-04-13T08:16:15.111Z,32.20
2023-04-13T08:18:43.673Z,32.50
2023-04-13T08:21:12.790Z,30.20
2023-04-13T08:23:42.200Z,31.10
2023-04-13T08:26:18.182Z,30.50
2023-04-13T08:28:46.719Z,30.70
2023-04-13T08:31:16.783Z,32.30
2023-04-13T08:33:44.911Z,33.40
2023-04-13T08:36:13.083Z,32.30
2023-04-13T08:38:41.163Z,33.70
2023-04-13T08:41:11.010Z,28.90
2023-04-13T08:43:40.443Z,28.80
2023-04-13T08:46:08.736Z,31.10
2023-04-13T08:49:04.587Z,29.50
2023-04-13T08:51:32.103Z,29.20
2023-04-13T08:54:00.701Z,30.90
2023-04-13T08:56:42.293Z,30.80
2023-04-13T08:59:15.503Z,32.00
2023-04-13T09:01:46.335Z,34.60
2023-04-13T09:04:19.073Z,36.10
2023-04-13T09:06:51.131Z,34.30
2023-04-13T09:09:20.539Z,35.00
2023-04-13T09:11:51.538Z,35.30
2023-04-13T09:14:22.009Z,36.50
2023-04-13T09:16:52.084Z,37.50
2023-04-13T09:19:31.103Z,40.30
2023-04-13T09:21:59.395Z,35.60
2023-04-13T09:24:27.744Z,35.40
2023-04-13T09:26:55.815Z,32.10
2023-04-13T09:29:23.833Z,37.80
2023-04-13T09:31:52.298Z,32.40
2023-04-13T09:34:29.960Z,30.50
2023-04-13T09:37:00.213Z,29.20
2023-04-13T09:39:29.863Z,31.60
2023-04-13T09:41:58.655Z,27.90
2023-04-13T09:44:28.528Z,29.20
2023-04-13T09:47:00.459Z,30.10
2023-04-13T09:49:38.361Z,30.10
2023-04-13T09:57:24.568Z,40.40
2023-04-13T09:59:54.240Z,40.90
2023-04-13T10:02:23.590Z,43.10
2023-04-13T10:04:54.018Z,44.00
2023-04-13T10:07:26.725Z,40.50
2023-04-13T10:09:54.905Z,40.50
2023-04-13T10:12:27.881Z,37.80
2023-04-13T10:15:02.093Z,39.00
2023-04-13T10:17:43.718Z,40.90
2023-04-13T10:20:14.081Z,41.90
2023-04-13T10:22:44.942Z,40.00
2023-04-13T10:25:29.161Z,37.80
2023-04-13T10:28:02.059Z,42.40
2023-04-13T10:30:30.333Z,36.90
2023-04-13T10:33:06.150Z,40.90
2023-04-13T10:35:42.912Z,31.70
2023-04-13T10:38:11.650Z,36.30
2023-04-13T10:40:46.251Z,35.50
2023-04-13T10:43:25.307Z,33.10
2023-04-13T10:46:05.274Z,36.60
2023-04-13T10:48:33.502Z,35.40
2023-04-13T10:51:03.231Z,36.30
2023-04-13T10:53:32.939Z,37.00
2023-04-13T10:56:01.502Z,34.70
2023-04-13T10:58:32.794Z,35.50
2023-04-13T11:01:01.528Z,31.50
2023-04-13T11:03:30.249Z,30.00
2023-04-13T11:06:00.162Z,27.90
2023-04-13T11:08:30.588Z,29.10
2023-04-13T11:11:00.141Z,29.40
2023-04-13T11:13:29.239Z,31.60
2023-04-13T11:16:05.229Z,27.10
2023-04-13T11:18:33.777Z,26.50
2023-04-13T11:21:04.675Z,27.40
2023-04-13T11:23:36.424Z,28.40
2023-04-13T11:26:05.023Z,25.80
2023-04-13T11:28:40.940Z,28.10
2023-04-13T11:31:09.160Z,25.30
2023-04-13T11:33:39.927Z,25.50
2023-04-13T11:36:09.721Z,25.10
2023-04-13T11:38:41.618Z,25.00
2023-04-13T11:43:42.243Z,27.00
2023-04-13T11:46:13.659Z,27.10
2023-04-13T11:48:42.292Z,25.00
2023-04-13T11:51:11.444Z,25.40
2023-04-13T11:53:41.746Z,26.00
2023-04-13T11:56:10.653Z,25.10
2023-04-13T11:58:39.823Z,25.90
2023-04-13T12:01:14.466Z,26.30
2023-04-13T12:06:17.528Z,35.80
2023-04-13T12:08:51.723Z,40.50
2023-04-13T12:11:41.210Z,44.20
2023-04-13T12:14:45.973Z,39.00
2023-04-13T12:17:34.870Z,38.60
2023-04-13T12:20:03.702Z,39.70
2023-04-13T12:22:50.996Z,42.30
2023-04-13T12:25:25.778Z,40.20
2023-04-13T12:27:54.945Z,37.30
2023-04-13T12:30:24.310Z,36.30
2023-04-13T12:32:53.560Z,34.30
2023-04-13T12:35:22.114Z,32.50
2023-04-13T12:37:50.801Z,30.60
2023-04-13T12:40:19.328Z,32.90
2023-04-13T12:42:49.646Z,33.50
2023-04-13T12:45:17.922Z,31.20
2023-04-13T12:47:46.104Z,32.50
2023-04-13T12:50:14.624Z,35.40
2023-04-13T12:52:44.504Z,30.10
2023-04-13T12:55:12.658Z,30.60
2023-04-13T12:57:40.899Z,30.10
2023-04-13T13:00:12.587Z,30.80
2023-04-13T13:02:40.941Z,31.10
2023-04-13T13:05:10.385Z,34.30
2023-04-13T13:07:38.612Z,34.70
2023-04-13T13:10:25.780Z,43.90
2023-04-13T13:12:57.303Z,42.50
2023-04-13T13:15:26.972Z,40.60
2023-04-13T13:17:55.207Z,40.70
2023-04-13T13:20:23.491Z,38.70
2023-04-13T13:22:51.827Z,37.80
2023-04-13T13:25:20.119Z,35.00
2023-04-13T13:30:19.545Z,31.70
2023-04-13T13:32:49.197Z,32.10
2023-04-13T13:35:17.436Z,34.80
2023-04-13T13:37:45.775Z,33.80
2023-04-13T13:40:14.236Z,33.70
2023-04-13T13:45:13.404Z,33.50
2023-04-13T13:47:41.761Z,32.10
2023-04-13T13:50:12.350Z,32.00
2023-04-13T13:52:48.730Z,32.10
2023-04-13T13:55:27.666Z,29.30
2023-04-13T13:57:55.708Z,32.90
2023-04-13T14:00:23.934Z,31.20
2023-04-13T14:02:52.377Z,38.50
2023-04-13T14:05:22.680Z,50.90
2023-04-13T14:07:51.245Z,52.70
2023-04-13T14:10:19.465Z,53.90
2023-04-13T14:12:50.534Z,57.20
2023-04-13T14:15:19.291Z,60.00
2023-04-13T14:17:58.835Z,63.10
2023-04-13T14:20:38.943Z,67.80
2023-04-13T14:23:09.066Z,64.50
2023-04-13T14:25:37.651Z,69.50
2023-04-13T14:28:06.223Z,64.60
2023-04-13T14:30:34.731Z,71.00
2023-04-13T14:33:04.023Z,69.70
2023-04-13T14:35:32.287Z,67.70
2023-04-13T14:38:01.895Z,73.40
2023-04-13T14:40:30.099Z,65.50
2023-04-13T14:42:58.168Z,70.60
2023-04-13T14:45:26.694Z,70.00
2023-04-13T14:47:54.880Z,72.80
2023-04-13T14:50:23.064Z,76.50
2023-04-13T14:52:52.368Z,69.70
2023-04-13T14:55:22.854Z,66.90
2023-04-13T14:57:51.217Z,63.90
2023-04-13T15:00:26.175Z,67.00
2023-04-13T15:02:54.689Z,66.60
2023-04-13T15:05:23.694Z,71.10
2023-04-13T15:07:51.974Z,67.50
2023-04-13T15:10:21.502Z,68.60
2023-04-13T15:12:49.599Z,71.30
2023-04-13T15:15:17.812Z,76.00
2023-04-13T15:17:46.247Z,74.00
2023-04-13T15:20:14.392Z,69.60
2023-04-13T15:22:42.457Z,66.80
2023-04-13T15:25:11.098Z,66.20
2023-04-13T15:27:41.265Z,70.40
2023-04-13T15:30:10.386Z,70.60
2023-04-13T15:32:38.454Z,69.20
2023-04-13T15:35:07.539Z,68.10
2023-04-13T15:37:35.639Z,70.10
2023-04-13T15:40:07.655Z,71.50
2023-04-13T15:42:36.139Z,74.70
2023-04-13T15:45:07.185Z,68.90
2023-04-13T15:47:36.002Z,64.60
2023-04-13T15:50:04.969Z,68.20
2023-04-13T15:52:33.412Z,70.00
2023-04-13T15:55:01.711Z,70.70
2023-04-13T15:57:29.776Z,68.50
2023-04-13T15:59:57.913Z,68.60
2023-04-13T16:02:27.503Z,69.50
2023-04-13T16:04:55.743Z,71.10
2023-04-13T16:07:23.890Z,69.60
2023-04-13T16:09:56.288Z,71.60
2023-04-13T16:12:26.497Z,66.40
2023-04-13T16:14:56.090Z,67.40
2023-04-13T16:17:31.139Z,69.30
2023-04-13T16:20:18.209Z,60.70
2023-04-13T16:22:49.084Z,63.30
2023-04-13T16:25:19.218Z,61.60
2023-04-13T16:27:49.044Z,62.00
2023-04-13T16:30:20.723Z,61.40
2023-04-13T16:32:50.712Z,61.30
2023-04-13T16:35:20.822Z,60.30
2023-04-13T16:37:48.900Z,59.40
2023-04-13T16:40:17.436Z,55.90
2023-04-13T16:42:45.575Z,54.80
2023-04-13T16:45:14.849Z,57.90
2023-04-13T16:47:43.553Z,59.40
2023-04-13T16:50:12.522Z,62.00
2023-04-13T16:52:42.447Z,58.30
2023-04-13T16:55:14.082Z,56.80
2023-04-13T16:57:43.660Z,55.10
2023-04-13T17:00:12.754Z,55.70
2023-04-13T17:02:41.997Z,56.40
2023-04-13T17:05:11.764Z,55.60
2023-04-13T17:07:43.085Z,57.40
2023-04-13T17:10:12.649Z,57.40
2023-04-13T17:12:41.088Z,58.40
2023-04-13T17:15:10.464Z,55.50
2023-04-13T17:17:38.896Z,58.00
2023-04-13T17:20:09.389Z,59.30
2023-04-13T17:22:37.975Z,57.00
2023-04-13T17:25:08.646Z,52.00
2023-04-13T17:27:36.815Z,51.30
2023-04-13T17:30:05.545Z,49.50
2023-04-13T17:32:34.812Z,48.70
2023-04-13T17:35:03.367Z,47.80
2023-04-13T17:37:31.488Z,52.10
2023-04-13T17:40:00.706Z,53.50
2023-04-13T17:42:30.113Z,53.30
2023-04-13T17:44:58.188Z,52.10
2023-04-13T17:47:26.279Z,50.40
2023-04-13T17:49:54.595Z,52.10
2023-04-13T17:52:22.639Z,51.10
2023-04-13T17:54:50.916Z,53.70
2023-04-13T17:57:19.104Z,54.70
2023-04-13T17:59:48.539Z,56.20
2023-04-13T18:02:16.758Z,55.50
2023-04-13T18:04:44.940Z,53.70
2023-04-13T18:07:13.077Z,55.40
2023-04-13T18:09:41.147Z,55.40
2023-04-13T18:12:09.279Z,58.20
2023-04-13T18:14:37.318Z,57.40
2023-04-13T18:17:06.749Z,58.90
2023-04-13T18:19:34.862Z,60.90
2023-04-13T18:22:02.964Z,62.50
2023-04-13T18:24:31.034Z,59.90
2023-04-13T18:26:59.047Z,63.00
2023-04-13T18:29:27.123Z,63.00
2023-04-13T18:31:55.375Z,62.80
2023-04-13T18:34:24.909Z,65.10
2023-04-13T18:36:53.062Z,65.00
2023-04-13T18:39:21.150Z,61.60
2023-04-13T18:41:49.224Z,60.60
2023-04-13T18:44:17.292Z,59.70
2023-04-13T18:46:45.470Z,59.10
2023-04-13T18:49:13.526Z,60.80
2023-04-13T18:51:43.321Z,61.30
2023-04-13T18:54:11.425Z,59.30
2023-04-13T18:56:39.513Z,58.20
2023-04-13T18:59:07.553Z,59.00
2023-04-13T19:01:35.697Z,61.80
2023-04-13T19:04:04.114Z,60.80
2023-04-13T19:06:32.449Z,61.70
2023-04-13T19:09:01.901Z,62.80
2023-04-13T19:11:45.019Z,65.70
2023-04-13T19:14:13.179Z,67.50
2023-04-13T19:16:41.564Z,67.10
2023-04-13T19:19:10.130Z,67.50
2023-04-13T19:21:38.209Z,68.50
2023-04-13T19:24:08.343Z,70.70
2023-04-13T19:26:36.434Z,68.60
2023-04-13T19:29:04.759Z,67.80
2023-04-13T19:31:37.855Z,66.30
2023-04-13T19:34:07.660Z,68.00
2023-04-13T19:36:37.186Z,69.00
2023-04-13T19:39:07.996Z,67.10
2023-04-13T19:41:37.358Z,70.00
2023-04-13T19:44:07.962Z,69.50
2023-04-13T19:46:36.413Z,70.40
2023-04-13T19:49:04.824Z,70.30
2023-04-13T19:51:33.339Z,70.00
2023-04-13T19:54:03.122Z,70.70
2023-04-13T19:56:34.522Z,67.20
2023-04-13T19:59:04.144Z,67.50
2023-04-13T20:01:33.763Z,70.30
2023-04-13T20:04:03.597Z,67.70
2023-04-13T20:06:33.037Z,69.30
2023-04-13T20:09:09.200Z,69.00
2023-04-13T20:11:38.740Z,70.00
2023-04-13T20:14:06.842Z,69.80
2023-04-13T20:16:35.627Z,69.40
2023-04-13T20:19:04.032Z,71.30
2023-04-13T20:21:32.911Z,73.00
2023-04-13T20:24:01.226Z,74.10
2023-04-13T20:26:31.424Z,75.30
2023-04-13T20:29:02.774Z,75.10
2023-04-13T20:31:31.250Z,75.70
2023-04-13T20:34:00.000Z,77.10
2023-04-13T20:36:28.314Z,76.10
2023-04-13T20:38:59.703Z,77.10
2023-04-13T20:41:29.889Z,75.50
2023-04-13T20:43:58.757Z,73.70
2023-04-13T20:46:34.874Z,75.00
2023-04-13T20:49:05.151Z,73.70
2023-04-13T20:51:34.116Z,74.20
2023-04-13T20:54:05.469Z,75.20
2023-04-13T20:56:34.142Z,74.80
2023-04-13T20:59:03.195Z,75.20
2023-04-13T21:01:32.625Z,73.70
2023-04-13T21:04:01.172Z,72.70
2023-04-13T21:06:30.098Z,69.10
2023-04-13T21:08:59.034Z,69.30
2023-04-13T21:11:27.512Z,68.80
2023-04-13T21:13:55.895Z,70.90
2023-04-13T21:16:25.690Z,68.50
2023-04-13T21:18:55.991Z,68.70
2023-04-13T21:21:25.072Z,67.50
2023-04-13T21:23:54.698Z,68.60
2023-04-13T21:26:22.796Z,70.50
2023-04-13T21:28:51.127Z,72.10
2023-04-13T21:31:19.327Z,72.40
2023-04-13T21:33:47.491Z,73.00
2023-04-13T21:38:47.922Z,73.40
2023-04-13T21:41:16.168Z,75.20
2023-04-13T21:43:44.305Z,76.10
2023-04-13T21:46:12.627Z,75.90
2023-04-13T21:48:41.126Z,74.20
2023-04-13T21:51:10.673Z,73.40
2023-04-13T21:53:40.338Z,73.40
2023-04-13T21:56:08.814Z,72.10
2023-04-13T21:58:41.729Z,69.30
2023-04-13T22:01:11.043Z,71.70
2023-04-13T22:03:40.315Z,70.10
2023-04-13T22:06:10.651Z,70.40
2023-04-13T22:08:40.376Z,72.50
2023-04-13T22:11:08.463Z,71.70
2023-04-13T22:13:36.800Z,66.00
2023-04-13T22:16:05.085Z,67.70
2023-04-13T22:18:33.200Z,68.50
2023-04-13T22:21:01.446Z,71.80
2023-04-13T22:23:30.032Z,72.00
2023-04-13T22:26:01.431Z,68.60
2023-04-13T22:28:30.068Z,69.90
2023-04-13T22:30:58.389Z,70.00
2023-04-13T22:33:31.641Z,71.50
2023-04-13T22:36:00.006Z,71.90
2023-04-13T22:38:28.060Z,72.90
2023-04-13T22:40:56.249Z,69.80
2023-04-13T22:43:26.132Z,70.70
2023-04-13T22:46:00.832Z,71.20
2023-04-13T22:48:29.880Z,70.70
2023-04-13T22:50:58.308Z,70.20
2023-04-13T22:53:27.009Z,70.60
2023-04-13T22:55:55.518Z,64.40
2023-04-13T22:58:24.963Z,65.80
2023-04-13T23:00:53.005Z,67.30
2023-04-13T23:03:21.383Z,67.50
2023-04-13T23:05:49.559Z,64.90
2023-04-13T23:08:17.748Z,66.10
2023-04-13T23:10:45.827Z,67.80
2023-04-13T23:13:13.900Z,69.30
2023-04-13T23:15:43.325Z,70.60
2023-04-13T23:18:11.408Z,71.40
2023-04-13T23:20:39.422Z,68.10
2023-04-13T23:23:07.461Z,63.10
2023-04-13T23:25:35.696Z,62.30
2023-04-13T23:28:03.737Z,64.10
2023-04-13T23:30:31.713Z,66.00
2023-04-13T23:33:01.283Z,67.30
2023-04-13T23:35:29.365Z,68.10
2023-04-13T23:37:57.384Z,67.80
2023-04-13T23:40:25.454Z,63.90
2023-04-13T23:42:53.475Z,63.30
2023-04-13T23:45:21.527Z,62.80
2023-04-13T23:47:49.765Z,63.10
2023-04-13T23:50:19.176Z,63.20
2023-04-13T23:52:47.259Z,65.20
2023-04-13T23:55:15.528Z,67.20
2023-04-13T23:57:43.539Z,68.40
